sensor_id;sensor_type;location;lat;lon;timestamp;P1;durP1;ratioP1;P2;durP2;ratioP2
43554;SDS011;35085;40.398;-3.702;2022-10-22T00:03:52;4.85;;;1.45;;
43554;SDS011;35085;40.398;-3.702;2022-10-22T00:14:00;4.93;;;1.50;;
43554;SDS011;35085;40.398;-3.702;2022-10-22T00:24:03;5.50;;;1.42;;
43554;SDS011;35085;40.398;-3.702;2022-10-22T00:34:11;6.07;;;1.50;;
43554;SDS011;35085;40.398;-3.702;2022-10-22T00:54:41;5.53;;;1.48;;
43554;SDS011;35085;40.398;-3.702;2022-10-22T01:04:51;4.57;;;1.50;;
43554;SDS011;35085;40.398;-3.702;2022-10-22T01:25:23;6.97;;;2.20;;
43554;SDS011;35085;40.398;-3.702;2022-10-22T01:35:32;7.32;;;2.67;;
43554;SDS011;35085;40.398;-3.702;2022-10-22T01:45:58;6.10;;;2.35;;
43554;SDS011;35085;40.398;-3.702;2022-10-22T02:06:41;8.85;;;2.17;;
43554;SDS011;35085;40.398;-3.702;2022-10-22T02:16:48;6.07;;;2.88;;
43554;SDS011;35085;40.398;-3.702;2022-10-22T02:37:16;7.07;;;2.28;;
43554;SDS011;35085;40.398;-3.702;2022-10-22T02:47:25;7.57;;;2.03;;
43554;SDS011;35085;40.398;-3.702;2022-10-22T02:57:33;4.47;;;1.40;;
43554;SDS011;35085;40.398;-3.702;2022-10-22T03:07:35;2.78;;;1.55;;
43554;SDS011;35085;40.398;-3.702;2022-10-22T03:17:43;3.33;;;1.23;;
43554;SDS011;35085;40.398;-3.702;2022-10-22T03:27:45;6.47;;;1.90;;
43554;SDS011;35085;40.398;-3.702;2022-10-22T03:37:51;2.25;;;1.45;;
43554;SDS011;35085;40.398;-3.702;2022-10-22T03:47:53;3.95;;;1.38;;
43554;SDS011;35085;40.398;-3.702;2022-10-22T03:58:01;6.05;;;1.27;;
43554;SDS011;35085;40.398;-3.702;2022-10-22T04:08:09;2.20;;;0.85;;
43554;SDS011;35085;40.398;-3.702;2022-10-22T04:18:18;3.20;;;1.00;;
43554;SDS011;35085;40.398;-3.702;2022-10-22T04:28:19;3.50;;;1.60;;
43554;SDS011;35085;40.398;-3.702;2022-10-22T04:38:30;6.43;;;2.13;;
43554;SDS011;35085;40.398;-3.702;2022-10-22T04:48:40;6.07;;;2.20;;
43554;SDS011;35085;40.398;-3.702;2022-10-22T04:58:46;4.13;;;2.40;;
43554;SDS011;35085;40.398;-3.702;2022-10-22T05:08:57;4.70;;;2.43;;
43554;SDS011;35085;40.398;-3.702;2022-10-22T05:19:03;5.28;;;2.78;;
43554;SDS011;35085;40.398;-3.702;2022-10-22T05:29:13;6.38;;;2.58;;
43554;SDS011;35085;40.398;-3.702;2022-10-22T05:39:22;5.07;;;2.33;;
43554;SDS011;35085;40.398;-3.702;2022-10-22T05:49:30;5.47;;;2.75;;
43554;SDS011;35085;40.398;-3.702;2022-10-22T05:59:39;8.18;;;3.17;;
43554;SDS011;35085;40.398;-3.702;2022-10-22T06:09:47;5.95;;;3.03;;
43554;SDS011;35085;40.398;-3.702;2022-10-22T06:19:56;11.55;;;3.50;;
43554;SDS011;35085;40.398;-3.702;2022-10-22T06:30:05;8.82;;;3.30;;
43554;SDS011;35085;40.398;-3.702;2022-10-22T06:40:15;5.97;;;2.73;;
43554;SDS011;35085;40.398;-3.702;2022-10-22T06:50:25;7.60;;;3.22;;
43554;SDS011;35085;40.398;-3.702;2022-10-22T07:00:34;8.43;;;3.70;;
43554;SDS011;35085;40.398;-3.702;2022-10-22T07:10:43;11.23;;;4.15;;
43554;SDS011;35085;40.398;-3.702;2022-10-22T07:20:52;8.13;;;4.20;;
43554;SDS011;35085;40.398;-3.702;2022-10-22T07:31:01;11.07;;;4.43;;
43554;SDS011;35085;40.398;-3.702;2022-10-22T07:41:12;11.10;;;5.50;;
43554;SDS011;35085;40.398;-3.702;2022-10-22T07:51:18;14.48;;;7.20;;
43554;SDS011;35085;40.398;-3.702;2022-10-22T08:01:27;16.10;;;10.73;;
43554;SDS011;35085;40.398;-3.702;2022-10-22T08:11:36;17.40;;;12.60;;
43554;SDS011;35085;40.398;-3.702;2022-10-22T08:21:44;10.13;;;5.50;;
43554;SDS011;35085;40.398;-3.702;2022-10-22T08:31:50;15.50;;;7.55;;
43554;SDS011;35085;40.398;-3.702;2022-10-22T08:52:11;9.65;;;6.35;;
43554;SDS011;35085;40.398;-3.702;2022-10-22T09:02:21;12.45;;;8.95;;
43554;SDS011;35085;40.398;-3.702;2022-10-22T09:12:24;27.83;;;19.63;;
43554;SDS011;35085;40.398;-3.702;2022-10-22T09:22:37;10.90;;;6.38;;
43554;SDS011;35085;40.398;-3.702;2022-10-22T09:32:42;6.05;;;3.17;;
43554;SDS011;35085;40.398;-3.702;2022-10-22T09:42:44;5.85;;;3.95;;
43554;SDS011;35085;40.398;-3.702;2022-10-22T09:52:59;5.80;;;3.45;;
43554;SDS011;35085;40.398;-3.702;2022-10-22T10:03:02;8.32;;;4.15;;
43554;SDS011;35085;40.398;-3.702;2022-10-22T11:25:14;20.40;;;5.60;;
43554;SDS011;35085;40.398;-3.702;2022-10-22T11:35:19;8.00;;;2.83;;
43554;SDS011;35085;40.398;-3.702;2022-10-22T11:45:27;8.15;;;2.60;;
43554;SDS011;35085;40.398;-3.702;2022-10-22T12:05:46;6.80;;;3.25;;
43554;SDS011;35085;40.398;-3.702;2022-10-22T12:16:08;5.10;;;2.17;;
43554;SDS011;35085;40.398;-3.702;2022-10-22T12:26:24;12.75;;;5.65;;
43554;SDS011;35085;40.398;-3.702;2022-10-22T12:36:26;8.10;;;2.42;;
43554;SDS011;35085;40.398;-3.702;2022-10-22T12:46:34;4.47;;;2.20;;
43554;SDS011;35085;40.398;-3.702;2022-10-22T12:56:35;4.88;;;2.15;;
43554;SDS011;35085;40.398;-3.702;2022-10-22T13:06:45;4.20;;;1.42;;
43554;SDS011;35085;40.398;-3.702;2022-10-22T13:27:04;5.75;;;2.42;;
43554;SDS011;35085;40.398;-3.702;2022-10-22T13:37:08;3.65;;;1.33;;
43554;SDS011;35085;40.398;-3.702;2022-10-22T13:47:23;4.88;;;1.50;;
43554;SDS011;35085;40.398;-3.702;2022-10-22T13:57:32;4.13;;;1.90;;
43554;SDS011;35085;40.398;-3.702;2022-10-22T14:07:40;3.53;;;1.52;;
43554;SDS011;35085;40.398;-3.702;2022-10-22T14:17:53;3.28;;;0.90;;
43554;SDS011;35085;40.398;-3.702;2022-10-22T14:28:00;4.68;;;1.83;;
43554;SDS011;35085;40.398;-3.702;2022-10-22T14:38:02;2.42;;;1.50;;
43554;SDS011;35085;40.398;-3.702;2022-10-22T14:48:11;5.43;;;1.40;;
43554;SDS011;35085;40.398;-3.702;2022-10-22T14:58:13;4.65;;;2.00;;
43554;SDS011;35085;40.398;-3.702;2022-10-22T15:08:23;2.30;;;1.00;;
43554;SDS011;35085;40.398;-3.702;2022-10-22T15:18:33;2.42;;;0.70;;
43554;SDS011;35085;40.398;-3.702;2022-10-22T15:28:42;1.55;;;0.60;;
43554;SDS011;35085;40.398;-3.702;2022-10-22T15:38:45;3.95;;;1.73;;
43554;SDS011;35085;40.398;-3.702;2022-10-22T15:59:03;1.80;;;0.87;;
43554;SDS011;35085;40.398;-3.702;2022-10-22T16:09:13;4.82;;;0.50;;
43554;SDS011;35085;40.398;-3.702;2022-10-22T16:19:22;2.47;;;0.63;;
43554;SDS011;35085;40.398;-3.702;2022-10-22T16:29:31;4.70;;;1.25;;
43554;SDS011;35085;40.398;-3.702;2022-10-22T16:39:33;3.42;;;0.90;;
43554;SDS011;35085;40.398;-3.702;2022-10-22T16:49:42;4.77;;;1.20;;
43554;SDS011;35085;40.398;-3.702;2022-10-22T16:59:44;6.43;;;1.38;;
43554;SDS011;35085;40.398;-3.702;2022-10-22T17:09:51;8.80;;;1.75;;
43554;SDS011;35085;40.398;-3.702;2022-10-22T17:19:53;4.57;;;1.30;;
43554;SDS011;35085;40.398;-3.702;2022-10-22T17:30:01;10.50;;;2.47;;
43554;SDS011;35085;40.398;-3.702;2022-10-22T17:40:04;4.25;;;0.40;;
43554;SDS011;35085;40.398;-3.702;2022-10-22T17:50:12;0.68;;;0.30;;
43554;SDS011;35085;40.398;-3.702;2022-10-22T18:00:21;0.83;;;0.30;;
43554;SDS011;35085;40.398;-3.702;2022-10-22T18:10:30;4.10;;;0.38;;
43554;SDS011;35085;40.398;-3.702;2022-10-22T18:20:31;0.90;;;0.40;;
43554;SDS011;35085;40.398;-3.702;2022-10-22T18:30:40;3.00;;;0.50;;
43554;SDS011;35085;40.398;-3.702;2022-10-22T18:40:45;3.13;;;0.40;;
43554;SDS011;35085;40.398;-3.702;2022-10-22T18:50:56;3.63;;;0.57;;
43554;SDS011;35085;40.398;-3.702;2022-10-22T19:00:58;3.25;;;1.08;;
43554;SDS011;35085;40.398;-3.702;2022-10-22T19:11:07;2.45;;;0.73;;
43554;SDS011;35085;40.398;-3.702;2022-10-22T19:21:09;3.30;;;1.17;;
43554;SDS011;35085;40.398;-3.702;2022-10-22T19:31:19;3.83;;;1.05;;
43554;SDS011;35085;40.398;-3.702;2022-10-22T19:41:23;4.35;;;1.20;;
43554;SDS011;35085;40.398;-3.702;2022-10-22T19:51:30;3.70;;;1.00;;
43554;SDS011;35085;40.398;-3.702;2022-10-22T20:01:37;10.35;;;1.65;;
43554;SDS011;35085;40.398;-3.702;2022-10-22T20:11:46;2.10;;;0.95;;
43554;SDS011;35085;40.398;-3.702;2022-10-22T20:21:54;2.50;;;0.90;;
43554;SDS011;35085;40.398;-3.702;2022-10-22T20:32:03;3.33;;;1.30;;
43554;SDS011;35085;40.398;-3.702;2022-10-22T20:42:12;2.63;;;1.10;;
43554;SDS011;35085;40.398;-3.702;2022-10-22T20:52:19;6.32;;;2.45;;
43554;SDS011;35085;40.398;-3.702;2022-10-22T21:02:27;8.57;;;1.40;;
43554;SDS011;35085;40.398;-3.702;2022-10-22T21:12:36;2.45;;;0.68;;
43554;SDS011;35085;40.398;-3.702;2022-10-22T21:22:44;1.90;;;0.68;;
43554;SDS011;35085;40.398;-3.702;2022-10-22T21:32:46;4.57;;;1.20;;
43554;SDS011;35085;40.398;-3.702;2022-10-22T21:42:56;4.07;;;0.90;;
43554;SDS011;35085;40.398;-3.702;2022-10-22T21:52:58;1.50;;;0.68;;
43554;SDS011;35085;40.398;-3.702;2022-10-22T22:03:07;5.20;;;1.90;;
43554;SDS011;35085;40.398;-3.702;2022-10-22T22:13:16;6.07;;;2.20;;
43554;SDS011;35085;40.398;-3.702;2022-10-22T22:23:23;2.60;;;1.15;;
43554;SDS011;35085;40.398;-3.702;2022-10-22T22:33:31;1.80;;;0.80;;
43554;SDS011;35085;40.398;-3.702;2022-10-22T22:43:40;1.77;;;0.80;;
43554;SDS011;35085;40.398;-3.702;2022-10-22T22:53:48;2.33;;;0.82;;
43554;SDS011;35085;40.398;-3.702;2022-10-22T23:03:58;3.53;;;0.90;;
43554;SDS011;35085;40.398;-3.702;2022-10-22T23:14:07;4.50;;;2.60;;
43554;SDS011;35085;40.398;-3.702;2022-10-22T23:24:15;2.30;;;1.02;;
43554;SDS011;35085;40.398;-3.702;2022-10-22T23:34:24;2.17;;;0.90;;
43554;SDS011;35085;40.398;-3.702;2022-10-22T23:44:33;3.50;;;1.60;;
43554;SDS011;35085;40.398;-3.702;2022-10-22T23:54:35;3.75;;;1.58;;
